This is the latest recevied weather packets stored in our database for station/object KK4XZ. If no packets are shown the sender has not sent any weather packets the latest 1 day(s).
| Time | Temp. | Humidity | Pressure | Rain* | Wind** | Luminosity | Snow |
|---|---|---|---|---|---|---|---|
| 1778079330 | 24.44° C | 64% | 1016.8 hPa | 0 mm | - | - | - |
| 1778077536 | 23.89° C | 67% | 1016.6 hPa | 0 mm | - | - | - |
| 1778076931 | 23.89° C | 70% | 1016.8 hPa | 0 mm | - | - | - |
| 1778074532 | 22.78° C | 74% | 1016.6 hPa | 0 mm | - | - | - |
| 1778073927 | 22.22° C | 75% | 1016.5 hPa | 0 mm | - | - | - |
| 1778072133 | 21.67° C | 77% | 1016.3 hPa | 0 mm | - | - | - |
| 1778070318 | 21.11° C | 82% | 1016.2 hPa | 0 mm | - | - | - |
| 1778069733 | 21.11° C | 85% | 1016.3 hPa | 0 mm | - | - | - |
| 1778069128 | 20.56° C | 88% | 1016.2 hPa | 0 mm | - | - | - |
| 1778066124 | 19.44° C | 92% | 1015.6 hPa | 0 mm | - | - | - |
| 1778064330 | 19.44° C | 91% | 1015.9 hPa | 0 mm | - | - | - |
| 1778063725 | 19.44° C | 90% | 1015.9 hPa | 0 mm | - | - | - |
| 1778060721 | 19.44° C | 90% | 1015.6 hPa | 0 mm | - | - | - |
| 1778060136 | 19.44° C | 89% | 1015.6 hPa | 0 mm | - | - | - |
| 1778058321 | 19.44° C | 89% | 1015.4 hPa | 0 mm | - | - | - |
| 1778055923 | 19.44° C | 88% | 1015.3 hPa | 0 mm | - | - | - |
| 1778055317 | 19.44° C | 87% | 1015.2 hPa | 0 mm | - | - | - |
| 1778054732 | 19.44° C | 87% | 1015.5 hPa | 0 mm | - | - | - |
| 1778054127 | 19.44° C | 87% | 1015.5 hPa | 0 mm | - | - | - |
| 1778053522 | 18.89° C | 88% | 1015.5 hPa | 0 mm | - | - | - |
| 1778052333 | 19.44° C | 88% | 1015.2 hPa | 0 mm | - | - | - |
| 1778051728 | 19.44° C | 87% | 1015.1 hPa | 0 mm | - | - | - |
| 1778051123 | 19.44° C | 87% | 1015.2 hPa | 0 mm | - | - | - |
| 1778049328 | 18.89° C | 87% | 1015.8 hPa | 0 mm | - | - | - |
| 1778048723 | 18.89° C | 88% | 1015.9 hPa | 0 mm | - | - | - |
* Rain latest hour (hover to see other rain measurements)
** Current wind speed in m/s (hover to see current wind gust speed)